Terminal Aerodrome Forecast
Issued by NWS

Home | Current Version | Previous Version | Text Only | Print | Product List | Glossary On
Versions: 1 2 3 4 5 6 7 8 9 10 11 12 13 14 15 16 17 18 19 20 21 22 23
008
FTUS41 KCAR 190534
TAFHUL
TAF
KHUL 190534Z 1906/2006 13007KT P6SM VCSH OVC035
     FM190700 13010G19KT 3SM -RASNPL BR BKN015 OVC025
      TEMPO 1909/1910 1SM -RASNPL BR OVC008
     FM191000 12011G21KT 3SM -RA BR OVC008
     FM191500 13010G20KT 3SM -RA BR OVC005
     FM192000 20012G24KT P6SM VCSH OVC005
     FM192200 22014G28KT P6SM BKN008
     FM200200 25012G27KT P6SM SCT035=

USA.gov is the U.S. government's official web portal to all federal, state and local government web resources and services.